createdAt,value
2018-05-29T00:04:48.075Z,12.47
2018-05-29T00:09:51.349Z,14.57
2018-05-29T00:14:54.607Z,16.13
2018-05-29T00:19:57.955Z,16.57
2018-05-29T00:25:01.211Z,17.53
2018-05-29T00:30:04.470Z,15.60
2018-05-29T00:35:07.727Z,18.73
2018-05-29T00:40:11.009Z,20.37
2018-05-29T00:45:15.019Z,20.27
2018-05-29T00:50:18.279Z,19.23
2018-05-29T00:55:33.160Z,16.00
2018-05-29T01:00:36.427Z,21.93
2018-05-29T01:05:40.464Z,22.03
2018-05-29T01:10:43.728Z,23.27
2018-05-29T01:15:46.991Z,23.23
2018-05-29T01:20:50.258Z,19.23
2018-05-29T01:25:53.519Z,24.47
2018-05-29T01:30:56.795Z,24.03
2018-05-29T01:36:00.059Z,20.13
2018-05-29T01:41:03.318Z,16.33
2018-05-29T01:46:07.350Z,22.13
2018-05-29T01:51:10.610Z,23.97
2018-05-29T01:56:13.872Z,23.90
2018-05-29T02:01:17.891Z,26.27
2018-05-29T02:06:21.174Z,24.03
2018-05-29T02:11:24.478Z,27.23
2018-05-29T02:16:27.734Z,28.73
2018-05-29T02:21:30.998Z,27.30
2018-05-29T02:26:34.258Z,26.53
2018-05-29T02:31:37.524Z,25.63
2018-05-29T02:36:40.787Z,26.37
2018-05-29T02:41:44.068Z,19.20
2018-05-29T02:46:48.074Z,23.67
2018-05-29T02:51:52.111Z,26.27
2018-05-29T02:56:55.376Z,29.80
2018-05-29T03:01:58.655Z,32.07
2018-05-29T03:07:01.924Z,31.87
2018-05-29T03:12:05.212Z,30.73
2018-05-29T03:17:08.478Z,29.97
2018-05-29T03:22:11.763Z,30.80
2018-05-29T03:27:15.791Z,31.93
2018-05-29T03:32:19.051Z,29.70
2018-05-29T03:37:22.323Z,28.00
2018-05-29T03:42:25.606Z,33.57
2018-05-29T03:47:29.634Z,28.60
2018-05-29T03:52:32.915Z,29.23
2018-05-29T03:57:36.177Z,23.00
2018-05-29T04:02:39.447Z,20.93
2018-05-29T04:07:43.485Z,24.97
2018-05-29T04:12:46.766Z,31.37
2018-05-29T04:17:50.030Z,24.27
2018-05-29T04:22:53.299Z,26.17
2018-05-29T04:27:58.155Z,28.37
2018-05-29T04:33:01.433Z,27.10
2018-05-29T04:38:04.681Z,29.43
2018-05-29T04:43:08.038Z,15.13
2018-05-29T04:48:11.319Z,27.53
2018-05-29T04:53:14.588Z,25.27
2018-05-29T04:58:18.615Z,26.63
2018-05-29T05:03:22.767Z,30.60
2018-05-29T05:08:26.052Z,23.47
2018-05-29T05:13:29.327Z,27.23
2018-05-29T05:18:32.618Z,24.17
2018-05-29T05:23:35.916Z,22.40
2018-05-29T05:28:39.172Z,19.03
2018-05-29T05:33:42.436Z,20.30
2018-05-29T05:38:45.716Z,26.97
2018-05-29T05:43:49.067Z,15.73
2018-05-29T05:48:52.343Z,21.30
2018-05-29T05:53:55.631Z,22.30
2018-05-29T05:58:58.899Z,19.87
2018-05-29T06:04:02.160Z,20.57
2018-05-29T06:09:05.443Z,25.67
2018-05-29T06:14:08.739Z,16.77
2018-05-29T06:19:13.023Z,23.80
2018-05-29T06:24:16.322Z,16.33
2018-05-29T06:29:19.550Z,19.90
2018-05-29T06:34:23.592Z,18.80
2018-05-29T06:39:26.859Z,17.27
2018-05-29T06:44:30.163Z,15.83
2018-05-29T06:49:33.436Z,15.30
2018-05-29T06:54:36.715Z,13.23
2018-05-29T06:59:39.982Z,11.17
2018-05-29T07:04:44.603Z,11.30
2018-05-29T07:09:48.791Z,10.10
2018-05-29T07:14:52.051Z,9.17
2018-05-29T07:19:55.359Z,9.53
2018-05-29T07:24:59.571Z,9.37
2018-05-29T07:30:02.827Z,8.30
2018-05-29T07:35:06.099Z,7.30
2018-05-29T07:40:09.351Z,8.00
2018-05-29T07:45:12.680Z,7.40
2018-05-29T07:50:15.925Z,7.83
2018-05-29T07:55:19.203Z,11.17
2018-05-29T08:00:22.470Z,9.37
2018-05-29T08:05:25.727Z,8.07
2018-05-29T08:10:28.989Z,11.87
2018-05-29T08:15:32.298Z,11.17
2018-05-29T08:20:35.580Z,8.53
2018-05-29T08:25:38.855Z,9.40
2018-05-29T08:30:42.123Z,10.27
2018-05-29T08:35:45.389Z,9.60
2018-05-29T08:40:48.652Z,9.23
2018-05-29T08:45:53.146Z,9.03
2018-05-29T08:50:56.416Z,7.80
2018-05-29T08:55:59.681Z,7.93
2018-05-29T09:01:02.935Z,9.63
2018-05-29T09:06:07.099Z,8.23
2018-05-29T09:11:10.357Z,7.67
2018-05-29T09:16:13.621Z,8.17
2018-05-29T09:21:16.872Z,8.20
2018-05-29T09:26:20.143Z,8.40
2018-05-29T09:31:23.432Z,7.67
2018-05-29T09:36:26.684Z,8.87
2018-05-29T09:41:29.978Z,7.70
2018-05-29T09:46:33.210Z,7.87
2018-05-29T09:51:36.463Z,6.90
2018-05-29T09:56:40.671Z,7.60
2018-05-29T10:01:43.910Z,6.90
2018-05-29T10:06:47.158Z,8.73
2018-05-29T10:11:50.421Z,9.73
2018-05-29T10:16:53.678Z,9.37
2018-05-29T10:21:56.951Z,10.27
2018-05-29T10:27:00.213Z,8.93
2018-05-29T10:32:03.482Z,9.27
2018-05-29T10:37:07.538Z,8.37
2018-05-29T10:42:10.795Z,8.20
2018-05-29T10:47:14.055Z,8.43
2018-05-29T10:52:18.216Z,8.20
2018-05-29T10:57:21.463Z,9.77
2018-05-29T11:02:24.714Z,8.57
2018-05-29T11:07:28.020Z,9.50
2018-05-29T11:12:31.326Z,8.07
2018-05-29T11:17:34.527Z,8.27
2018-05-29T11:22:37.775Z,8.67
2018-05-29T11:27:41.032Z,8.37
2018-05-29T11:32:44.282Z,9.10
2018-05-29T11:37:47.522Z,7.97
2018-05-29T11:42:51.539Z,8.27
2018-05-29T11:47:54.844Z,9.67
2018-05-29T11:52:58.863Z,8.80
2018-05-29T11:58:02.116Z,8.07
2018-05-29T12:03:05.379Z,10.33
2018-05-29T12:08:09.412Z,8.63
2018-05-29T12:13:12.658Z,8.60
2018-05-29T12:18:15.911Z,8.93
2018-05-29T12:23:19.160Z,9.60
2018-05-29T12:28:22.413Z,9.77
2018-05-29T12:33:25.662Z,9.20
2018-05-29T12:38:28.919Z,8.70
2018-05-29T12:43:33.071Z,9.80
2018-05-29T12:48:36.444Z,10.47
2018-05-29T12:53:39.698Z,9.70
2018-05-29T12:58:42.955Z,8.97
2018-05-29T13:03:46.230Z,8.80
2018-05-29T13:08:49.463Z,9.90
2018-05-29T13:13:52.724Z,9.17
2018-05-29T13:18:55.971Z,9.60
2018-05-29T13:23:59.242Z,8.53
2018-05-29T13:29:02.495Z,9.30
2018-05-29T13:34:05.771Z,9.83
2018-05-29T13:39:09.096Z,10.23
2018-05-29T13:44:12.336Z,10.27
2018-05-29T13:49:15.685Z,10.17
2018-05-29T13:54:18.884Z,11.57
2018-05-29T13:59:22.148Z,12.23
2018-05-29T14:04:25.415Z,16.03
2018-05-29T14:09:28.666Z,17.03
2018-05-29T14:14:31.948Z,17.40
2018-05-29T14:19:35.972Z,19.67
2018-05-29T14:24:39.996Z,23.43
2018-05-29T14:29:44.015Z,22.07
2018-05-29T14:34:47.291Z,17.60
2018-05-29T14:39:50.544Z,16.70
2018-05-29T14:44:53.807Z,14.30
2018-05-29T14:49:57.191Z,18.70
2018-05-29T14:55:00.454Z,18.97
2018-05-29T15:00:03.735Z,16.27
2018-05-29T15:05:07.011Z,14.17
2018-05-29T15:10:10.267Z,13.53
2018-05-29T15:15:13.606Z,14.70
2018-05-29T15:20:16.871Z,12.30
2018-05-29T15:25:20.156Z,11.77
2018-05-29T15:30:23.417Z,10.63
2018-05-29T15:35:27.452Z,11.07
2018-05-29T15:40:30.711Z,10.43
2018-05-29T15:45:33.966Z,9.87
2018-05-29T15:50:37.474Z,9.33
2018-05-29T15:55:40.747Z,12.83
2018-05-29T16:00:44.010Z,16.20
2018-05-29T16:05:47.303Z,15.30
2018-05-29T16:10:50.835Z,10.67
2018-05-29T16:15:54.103Z,10.73
2018-05-29T16:20:57.394Z,13.20
2018-05-29T16:26:00.652Z,12.13
2018-05-29T16:31:03.923Z,13.07
2018-05-29T16:36:07.204Z,12.43
2018-05-29T16:41:10.483Z,8.97
2018-05-29T16:46:13.756Z,10.93
2018-05-29T16:51:17.047Z,8.57
2018-05-29T16:56:20.312Z,8.27
2018-05-29T17:01:23.609Z,8.33
2018-05-29T17:06:26.856Z,10.37
2018-05-29T17:11:30.147Z,10.87
2018-05-29T17:16:33.415Z,18.27
2018-05-29T17:21:36.724Z,20.30
2018-05-29T17:26:40.019Z,23.37
2018-05-29T17:31:43.301Z,21.73
2018-05-29T17:36:46.570Z,17.80
2018-05-29T17:41:50.620Z,18.07
2018-05-29T17:46:53.900Z,15.73
2018-05-29T17:51:57.178Z,14.30
2018-05-29T17:57:01.216Z,11.63
2018-05-29T18:02:05.262Z,12.70
2018-05-29T18:07:08.510Z,12.20
2018-05-29T18:12:11.770Z,14.30
2018-05-29T18:17:15.812Z,15.43
2018-05-29T18:22:19.096Z,18.40
2018-05-29T18:27:23.113Z,14.77
2018-05-29T18:32:26.395Z,19.53
2018-05-29T18:37:29.675Z,18.33
2018-05-29T18:42:32.959Z,21.40
2018-05-29T18:47:37.007Z,20.20
2018-05-29T18:52:40.347Z,21.10
2018-05-29T18:57:43.602Z,10.73
2018-05-29T19:02:47.627Z,20.67
2018-05-29T19:07:51.655Z,22.93
2018-05-29T19:12:55.689Z,19.70
2018-05-29T19:17:58.975Z,18.50
2018-05-29T19:23:03.096Z,21.17
2018-05-29T19:28:06.335Z,20.50
2018-05-29T19:33:09.611Z,23.87
2018-05-29T19:38:12.891Z,20.47
2018-05-29T19:43:16.152Z,20.60
2018-05-29T19:48:19.423Z,13.97
2018-05-29T19:53:22.766Z,20.23
2018-05-29T19:58:26.800Z,19.90
2018-05-29T20:03:30.845Z,23.93
2018-05-29T20:08:34.102Z,23.23
2018-05-29T20:13:37.422Z,16.80
2018-05-29T20:18:40.691Z,20.73
2018-05-29T20:23:43.959Z,18.43
2018-05-29T20:28:47.231Z,19.17
2018-05-29T20:33:50.504Z,20.90
2018-05-29T20:38:53.766Z,20.73
2018-05-29T20:43:57.917Z,12.77
2018-05-29T20:49:01.195Z,12.00
2018-05-29T20:54:05.279Z,7.87
2018-05-29T20:59:08.542Z,8.87
2018-05-29T21:04:11.892Z,7.53
2018-05-29T21:09:15.160Z,9.37
2018-05-29T21:14:18.468Z,9.27
2018-05-29T21:19:21.739Z,9.63
2018-05-29T21:24:25.091Z,9.80
2018-05-29T21:29:29.127Z,10.23
2018-05-29T21:34:32.435Z,9.00
2018-05-29T21:39:36.449Z,9.03
2018-05-29T21:44:40.473Z,7.37
2018-05-29T21:49:44.595Z,6.27
2018-05-29T21:54:47.948Z,7.03
2018-05-29T21:59:51.346Z,4.97
2018-05-29T22:04:54.669Z,8.23
2018-05-29T22:09:57.943Z,8.00
2018-05-29T22:15:01.981Z,7.83
2018-05-29T22:20:05.239Z,7.83
2018-05-29T22:25:08.499Z,4.90
2018-05-29T22:30:12.520Z,6.13
2018-05-29T22:35:16.531Z,7.20
2018-05-29T22:40:20.563Z,7.47
2018-05-29T22:45:23.820Z,4.87
2018-05-29T22:50:27.104Z,4.47
2018-05-29T22:55:30.455Z,4.63
2018-05-29T23:00:33.702Z,6.90
2018-05-29T23:05:37.732Z,6.67
2018-05-29T23:10:40.992Z,6.77
2018-05-29T23:15:44.246Z,7.53
2018-05-29T23:20:48.352Z,8.17
2018-05-29T23:25:51.665Z,7.67
2018-05-29T23:30:54.920Z,8.70
2018-05-29T23:35:58.172Z,8.80
2018-05-29T23:41:01.428Z,10.13
2018-05-29T23:46:04.699Z,10.13
2018-05-29T23:51:07.964Z,10.70
2018-05-29T23:56:11.227Z,5.70
